Time;durP1;ratioP1;P1;durP2;ratioP2;P2;SDS_P1;SDS_P2;PMS_P1;PMS_P2;Temp;Humidity;BMP_temperature;BMP_pressure;BME280_temperature;BME280_humidity;BME280_pressure;Samples;Min_cycle;Max_cycle;Signal;HPM_P1;HPM_P2
2021/04/13 00:00:29;;;;;;;63.92;32.90;;;-0.10;99.90;;;;;;5072435;28;20461;-63
2021/04/13 00:02:55;;;;;;;67.53;34.10;;;-0.10;99.90;;;;;;5089087;28;20036;-61
2021/04/13 00:05:41;;;;;;;69.65;35.13;;;-0.10;99.90;;;;;;5089856;28;20062;-64
2021/04/13 00:08:15;;;;;;;70.25;35.63;;;-0.20;99.90;;;;;;5090435;28;20021;-62
2021/04/13 00:10:48;;;;;;;74.00;36.20;;;-0.20;99.90;;;;;;5089845;28;20038;-63
2021/04/13 00:13:15;;;;;;;72.05;37.15;;;-0.20;99.90;;;;;;5090318;28;20472;-63
2021/04/13 00:15:50;;;;;;;74.28;36.85;;;-0.20;99.90;;;;;;5086765;28;20120;-63
2021/04/13 00:18:27;;;;;;;72.10;36.67;;;-0.20;99.90;;;;;;5075298;28;20035;-63
2021/04/13 00:20:59;;;;;;;77.00;37.20;;;-0.20;99.90;;;;;;5076713;28;20031;-63
2021/04/13 00:23:25;;;;;;;73.03;37.60;;;-0.20;99.90;;;;;;5076685;28;20021;-63
2021/04/13 00:25:54;;;;;;;80.95;38.42;;;-0.20;99.90;;;;;;5076578;28;20056;-63
2021/04/13 00:28:26;;;;;;;80.22;39.88;;;-0.20;99.90;;;;;;5076620;28;20016;-63
2021/04/13 00:30:55;;;;;;;74.78;35.88;;;-0.20;99.90;;;;;;5076581;28;20017;-63
2021/04/13 00:33:26;;;;;;;75.97;37.72;;;-0.30;99.90;;;;;;5076510;28;20020;-63
2021/04/13 00:36:17;;;;;;;77.35;38.50;;;-0.30;99.90;;;;;;5076465;28;20024;-63
2021/04/13 00:38:49;;;;;;;79.80;37.33;;;-0.30;99.90;;;;;;5075096;28;20020;-63
2021/04/13 00:41:27;;;;;;;81.97;39.33;;;-0.30;99.90;;;;;;5075823;28;20028;-63
2021/04/13 00:44:01;;;;;;;85.13;40.70;;;-0.30;99.90;;;;;;5075132;28;20028;-65
2021/04/13 00:46:33;;;;;;;82.20;38.78;;;-0.30;99.90;;;;;;5075915;28;20077;-66
2021/04/13 00:49:00;;;;;;;72.65;36.20;;;-0.40;99.90;;;;;;5074370;28;20021;-63
2021/04/13 00:51:31;;;;;;;71.30;36.33;;;-0.40;99.90;;;;;;5074330;28;20024;-63
2021/04/13 00:54:02;;;;;;;84.47;39.13;;;-0.40;99.90;;;;;;5076026;28;20070;-62
2021/04/13 00:56:28;;;;;;;83.47;40.42;;;-0.50;99.90;;;;;;5076001;28;20378;-62
2021/04/13 00:59:03;;;;;;;81.35;41.13;;;-0.40;99.90;;;;;;5074485;28;20458;-62
2021/04/13 01:01:34;;;;;;;79.43;38.65;;;-0.30;99.90;;;;;;5075923;28;20024;-62
2021/04/13 01:04:08;;;;;;;81.53;40.72;;;-0.30;99.90;;;;;;5075525;28;20055;-62
2021/04/13 01:06:35;;;;;;;86.43;40.60;;;-0.40;99.90;;;;;;5074054;28;20025;-62
2021/04/13 01:09:09;;;;;;;84.75;40.97;;;-0.40;99.90;;;;;;5075189;28;20481;-62
2021/04/13 01:11:46;;;;;;;80.05;38.88;;;-0.40;99.90;;;;;;5074589;28;20028;-62
2021/04/13 01:14:12;;;;;;;84.53;39.60;;;-0.50;99.90;;;;;;5057605;28;20028;-62
2021/04/13 01:16:45;;;;;;;98.82;43.97;;;-0.40;99.90;;;;;;5057158;28;20440;-62
2021/04/13 01:19:37;;;;;;;90.85;42.03;;;-0.40;99.90;;;;;;5075567;28;20067;-63
2021/04/13 01:22:21;;;;;;;87.95;42.92;;;-0.20;99.90;;;;;;5073738;28;20031;-62
2021/04/13 01:24:51;;;;;;;92.40;43.33;;;-0.10;99.90;;;;;;5058596;28;20034;-63
2021/04/13 01:27:20;;;;;;;90.72;43.25;;;0.00;99.90;;;;;;5072977;28;20020;-62
2021/04/13 01:29:47;;;;;;;77.88;39.92;;;0.00;99.90;;;;;;5073761;28;20020;-62
2021/04/13 01:32:15;;;;;;;79.75;41.35;;;-0.10;99.90;;;;;;5074297;28;20538;-62
2021/04/13 01:40:04;;;;;;;94.75;52.88;;;-0.30;99.90;;;;;;5110794;27;20875;-62
2021/04/13 01:42:32;;;;;;;75.80;39.85;;;-0.30;99.90;;;;;;5110488;28;20048;-62
2021/04/13 01:45:06;;;;;;;81.43;39.72;;;-0.50;99.90;;;;;;5110798;28;20107;-62
2021/04/13 01:47:32;;;;;;;88.57;41.60;;;-0.50;99.90;;;;;;5110627;28;20019;-62
2021/04/13 01:50:03;;;;;;;77.13;40.00;;;-0.50;99.90;;;;;;5111722;28;20020;-62
2021/04/13 01:52:33;;;;;;;84.25;39.72;;;-0.50;99.90;;;;;;5111362;28;20469;-62
2021/04/13 01:55:08;;;;;;;83.53;40.17;;;-0.50;99.90;;;;;;5110626;28;20115;-62
2021/04/13 01:57:58;;;;;;;81.15;39.95;;;-0.60;99.90;;;;;;5109957;28;20016;-62
2021/04/13 02:00:28;;;;;;;75.30;37.33;;;-0.60;99.90;;;;;;5111153;28;20028;-62
2021/04/13 02:03:06;;;;;;;88.30;40.20;;;-0.60;99.90;;;;;;5093107;28;20074;-62
2021/04/13 02:05:35;;;;;;;86.45;41.25;;;-0.70;99.90;;;;;;5111426;28;20020;-62
2021/04/13 02:08:25;;;;;;;86.40;43.13;;;-0.70;99.90;;;;;;5111148;28;20031;-62
2021/04/13 02:11:00;;;;;;;85.60;41.08;;;-0.70;99.90;;;;;;5111273;28;20062;-62
2021/04/13 02:13:32;;;;;;;85.47;40.38;;;-0.70;99.90;;;;;;5110990;28;20025;-62
2021/04/13 02:16:05;;;;;;;72.47;32.03;;;-0.80;99.90;;;;;;5111021;28;20418;-62
2021/04/13 02:18:48;;;;;;;96.68;41.70;;;-0.70;99.90;;;;;;5109290;28;20278;-62
2021/04/13 02:21:19;;;;;;;;;;;-0.80;99.90;;;;;;5092840;28;20028;-62
2021/04/13 02:23:51;;;;;;;84.22;38.63;;;-0.80;99.90;;;;;;5110542;28;19908;-62
2021/04/13 02:26:17;;;;;;;93.15;43.40;;;-0.80;99.90;;;;;;5109611;28;20046;-63
2021/04/13 02:28:44;;;;;;;93.80;43.03;;;-0.90;99.90;;;;;;5109172;28;20035;-63
2021/04/13 02:31:14;;;;;;;93.07;43.58;;;-0.90;99.90;;;;;;5092134;28;20020;-63
2021/04/13 02:33:43;;;;;;;109.75;44.20;;;-0.90;99.90;;;;;;5092112;28;20028;-62
2021/04/13 02:36:16;;;;;;;104.95;46.75;;;-0.90;99.90;;;;;;5109039;28;20023;-63
2021/04/13 02:38:48;;;;;;;105.15;45.72;;;-0.80;99.90;;;;;;5110277;28;20036;-63
2021/04/13 02:41:22;;;;;;;95.60;45.00;;;-0.70;99.90;;;;;;5110523;28;20016;-63
2021/04/13 02:43:51;;;;;;;96.45;45.33;;;-0.50;99.90;;;;;;5109259;28;20061;-63
2021/04/13 02:46:22;;;;;;;113.60;49.88;;;-0.60;99.90;;;;;;5110126;28;20023;-63
2021/04/13 02:49:01;;;;;;;108.45;48.67;;;-0.60;99.90;;;;;;5110048;28;20028;-63
2021/04/13 02:51:29;;;;;;;105.85;46.70;;;-0.40;99.90;;;;;;5096423;28;20463;-63
2021/04/13 02:53:56;;;;;;;100.30;46.10;;;-0.40;99.90;;;;;;5095408;28;20020;-63
2021/04/13 02:56:28;;;;;;;100.88;47.10;;;-0.30;99.90;;;;;;5096922;28;20023;-63
2021/04/13 02:59:20;;;;;;;98.30;45.50;;;-0.30;99.90;;;;;;5095647;28;20024;-63
2021/04/13 03:04:38;;;;;;;100.13;47.60;;;-0.30;99.90;;;;;;5112191;27;20347;-62
2021/04/13 03:07:04;;;;;;;100.43;45.75;;;-0.20;99.90;;;;;;5110702;28;20032;-62
2021/04/13 03:09:35;;;;;;;97.78;45.33;;;-0.20;99.90;;;;;;5111539;28;20461;-62
2021/04/13 03:12:03;;;;;;;94.30;44.97;;;-0.20;99.90;;;;;;5111733;28;20407;-63
2021/04/13 03:14:37;;;;;;;91.15;44.53;;;-0.30;99.90;;;;;;5111055;28;20077;-62
2021/04/13 03:17:08;;;;;;;98.35;45.90;;;-0.30;99.90;;;;;;5111712;28;20107;-62
2021/04/13 03:19:34;;;;;;;97.95;47.10;;;-0.30;99.90;;;;;;5110451;28;20453;-62
2021/04/13 03:22:03;;;;;;;97.78;44.75;;;-0.30;99.90;;;;;;5111349;28;20073;-62
2021/04/13 03:24:36;;;;;;;97.53;43.90;;;-0.30;99.90;;;;;;5092775;28;20425;-62
2021/04/13 03:27:07;;;;;;;96.00;45.38;;;-0.40;99.90;;;;;;5111206;28;20495;-62
2021/04/13 03:29:43;;;;;;;99.55;44.42;;;-0.40;99.90;;;;;;5111133;28;20054;-62
2021/04/13 03:32:10;;;;;;;101.65;45.33;;;-0.40;99.90;;;;;;5110852;28;20491;-62
2021/04/13 03:34:41;;;;;;;93.25;44.00;;;-0.40;99.90;;;;;;5111033;28;20024;-62
2021/04/13 03:37:07;;;;;;;97.60;45.85;;;-0.40;99.90;;;;;;5111280;28;20031;-62
2021/04/13 03:39:37;;;;;;;102.97;48.83;;;-0.40;99.90;;;;;;5109789;28;20381;-62
2021/04/13 03:42:05;;;;;;;101.50;47.15;;;-0.40;99.90;;;;;;5109667;28;20020;-62
2021/04/13 03:44:35;;;;;;;109.72;49.30;;;-0.40;99.90;;;;;;5110899;28;20020;-62
2021/04/13 03:47:01;;;;;;;99.50;48.17;;;-0.30;99.90;;;;;;5111083;28;20454;-62
2021/04/13 03:49:32;;;;;;;107.32;48.05;;;-0.20;99.90;;;;;;5109255;28;20024;-62
2021/04/13 03:52:04;;;;;;;106.32;48.45;;;-0.10;99.90;;;;;;5110726;28;20011;-62
2021/04/13 03:54:35;;;;;;;108.50;48.88;;;-0.10;99.90;;;;;;5110444;28;20032;-62
2021/04/13 03:57:01;;;;;;;107.50;50.13;;;-0.10;99.90;;;;;;5110939;28;20102;-62
2021/04/13 03:59:30;;;;;;;96.70;46.75;;;-0.10;99.90;;;;;;5109094;28;20051;-62
2021/04/13 04:01:55;;;;;;;95.43;44.95;;;0.20;99.90;;;;;;5110287;28;20058;-62
2021/04/13 04:04:31;;;;;;;92.60;45.33;;;0.20;99.90;;;;;;5110113;28;20071;-62
2021/04/13 04:07:04;;;;;;;101.13;47.45;;;0.20;99.90;;;;;;5110781;28;20026;-62
2021/04/13 04:12:21;;;;;;;97.38;46.22;;;0.20;99.90;;;;;;5112175;27;20105;-62
2021/04/13 04:14:59;;;;;;;93.57;44.38;;;0.40;99.90;;;;;;5111578;28;20059;-62
2021/04/13 04:17:28;;;;;;;86.13;42.50;;;0.40;99.90;;;;;;5111771;28;20016;-62
2021/04/13 04:19:56;;;;;;;89.32;43.00;;;0.60;99.90;;;;;;5109921;28;20038;-62
2021/04/13 04:22:24;;;;;;;85.53;43.78;;;0.60;99.90;;;;;;5111402;28;20027;-62
2021/04/13 04:24:50;;;;;;;76.13;40.40;;;0.60;99.90;;;;;;5127505;27;20020;-62
2021/04/13 04:27:21;;;;;;;74.72;38.72;;;0.70;99.90;;;;;;5110150;28;20028;-62
2021/04/13 04:29:52;;;;;;;72.18;39.33;;;0.70;99.90;;;;;;5111235;28;20024;-62
2021/04/13 04:32:39;;;;;;;73.88;37.83;;;0.80;99.90;;;;;;5111535;28;20016;-62
2021/04/13 04:35:10;;;;;;;76.35;38.15;;;0.80;99.90;;;;;;5109607;28;20069;-62
2021/04/13 04:37:55;;;;;;;77.28;36.00;;;0.80;99.90;;;;;;5109659;28;20025;-62
2021/04/13 04:40:38;;;;;;;69.63;35.58;;;1.00;99.90;;;;;;5110829;28;20052;-62
2021/04/13 04:43:09;;;;;;;67.28;34.47;;;1.00;99.90;;;;;;5111323;28;20050;-62
2021/04/13 04:45:49;;;;;;;68.20;34.72;;;1.00;99.90;;;;;;5111022;28;20050;-62
2021/04/13 04:48:20;;;;;;;70.10;35.10;;;0.90;99.90;;;;;;5110673;28;20024;-62
2021/04/13 04:50:46;;;;;;;62.70;33.53;;;0.90;99.90;;;;;;5110827;28;20164;-62
2021/04/13 04:53:14;;;;;;;68.28;35.55;;;1.00;99.90;;;;;;5110849;28;20461;-62
2021/04/13 04:55:39;;;;;;;76.90;38.40;;;1.00;99.90;;;;;;5109939;28;20472;-62
2021/04/13 04:58:05;;;;;;;82.25;38.65;;;1.00;99.90;;;;;;5111063;28;20024;-62
2021/04/13 05:00:30;;;;;;;63.45;35.13;;;1.10;99.90;;;;;;5109696;28;20035;-62
2021/04/13 05:02:56;;;;;;;68.40;36.38;;;1.20;99.90;;;;;;5092028;28;20032;-62
2021/04/13 05:05:21;;;;;;;69.18;36.70;;;1.20;99.90;;;;;;5109135;28;20024;-63
2021/04/13 05:07:47;;;;;;;75.18;37.22;;;1.30;99.90;;;;;;5110824;28;20016;-62
2021/04/13 05:10:13;;;;;;;65.95;35.05;;;1.40;99.90;;;;;;5109381;28;20051;-62
2021/04/13 05:12:39;;;;;;;61.88;34.72;;;1.40;99.90;;;;;;5109274;28;20016;-62
2021/04/13 05:15:05;;;;;;;63.60;31.65;;;1.40;99.90;;;;;;5110711;28;20039;-62
2021/04/13 05:17:30;;;;;;;63.97;33.55;;;1.40;99.90;;;;;;5109182;28;20023;-62
2021/04/13 05:19:56;;;;;;;54.70;29.95;;;1.60;99.90;;;;;;5110315;28;20023;-62
2021/04/13 05:22:21;;;;;;;55.92;32.38;;;1.70;99.90;;;;;;5101443;28;20020;-62
2021/04/13 05:24:47;;;;;;;62.92;32.45;;;1.80;99.90;;;;;;5095465;28;20530;-62
2021/04/13 05:27:12;;;;;;;55.45;30.92;;;1.90;99.90;;;;;;5096620;28;20020;-62
2021/04/13 05:29:38;;;;;;;47.13;27.90;;;2.20;99.90;;;;;;5096624;28;20078;-62
2021/04/13 05:32:04;;;;;;;44.65;26.38;;;2.50;99.90;;;;;;5096437;28;20028;-62
2021/04/13 05:34:29;;;;;;;50.50;26.42;;;2.60;99.90;;;;;;5096773;28;20020;-62
2021/04/13 05:36:55;;;;;;;42.92;24.33;;;2.80;99.90;;;;;;5096437;28;20373;-62
2021/04/13 05:39:22;;;;;;;50.00;27.50;;;3.20;99.90;;;;;;5095464;28;20020;-62
2021/04/13 05:41:49;;;;;;;41.25;23.60;;;3.60;99.90;;;;;;5096037;28;20036;-62
2021/04/13 05:44:15;;;;;;;37.97;21.17;;;4.00;99.90;;;;;;5096572;28;20115;-72
2021/04/13 05:46:42;;;;;;;37.33;21.70;;;4.50;99.90;;;;;;5094712;28;20553;-72
2021/04/13 05:49:08;;;;;;;32.45;19.20;;;5.00;99.90;;;;;;5095823;28;20107;-72
2021/04/13 05:51:33;;;;;;;30.02;18.40;;;5.70;99.90;;;;;;5077987;28;20165;-72
2021/04/13 05:53:59;;;;;;;27.88;16.73;;;6.40;99.90;;;;;;5094762;28;20399;-72
2021/04/13 05:56:30;;;;;;;24.95;15.45;;;6.90;99.90;;;;;;5095759;28;20024;-73
2021/04/13 05:58:56;;;;;;;29.08;17.13;;;6.70;99.90;;;;;;5094508;28;20035;-73
2021/04/13 06:01:25;;;;;;;35.20;19.48;;;5.60;99.90;;;;;;5094869;28;20024;-72
2021/04/13 06:03:51;;;;;;;28.83;18.33;;;5.00;99.90;;;;;;5094720;28;20028;-72
2021/04/13 06:06:17;;;;;;;26.65;17.25;;;4.60;99.90;;;;;;5094811;28;20020;-72
2021/04/13 06:08:44;;;;;;;28.25;19.25;;;4.40;99.90;;;;;;5093933;28;20484;-72
2021/04/13 06:11:15;;;;;;;28.05;17.38;;;4.40;99.90;;;;;;5093916;28;20389;-72
2021/04/13 06:13:41;;;;;;;35.38;17.10;;;4.90;99.90;;;;;;5094169;28;20077;-73
2021/04/13 06:16:09;;;;;;;30.08;17.50;;;5.80;99.90;;;;;;5095585;28;20020;-73
2021/04/13 06:18:34;;;;;;;33.72;17.58;;;6.20;99.90;;;;;;5095319;28;20020;-73
2021/04/13 06:21:00;;;;;;;23.02;15.60;;;7.00;99.90;;;;;;5077863;28;20039;-73
2021/04/13 06:23:25;;;;;;;23.98;15.85;;;7.60;99.90;;;;;;5077693;28;20044;-73
2021/04/13 06:25:51;;;;;;;23.65;14.32;;;7.50;99.90;;;;;;5095055;28;20027;-73
2021/04/13 06:28:17;;;;;;;23.85;15.00;;;7.30;99.90;;;;;;5093811;28;20031;-74
2021/04/13 06:30:43;;;;;;;18.40;12.73;;;8.10;99.90;;;;;;5094859;28;20020;-74
2021/04/13 06:33:09;;;;;;;20.88;12.15;;;8.80;99.90;;;;;;5093633;28;20119;-74
2021/04/13 06:35:35;;;;;;;20.23;10.75;;;9.30;99.90;;;;;;5076684;28;20063;-74
2021/04/13 06:38:05;;;;;;;17.33;10.30;;;9.50;99.90;;;;;;5095191;28;20115;-74
2021/04/13 06:40:55;;;;;;;18.65;10.48;;;9.40;99.90;;;;;;5093688;28;20028;-74
2021/04/13 06:44:00;;;;;;;15.02;9.55;;;9.70;99.90;;;;;;5094822;28;20012;-74
2021/04/13 06:46:49;;;;;;;18.70;8.88;;;8.10;99.90;;;;;;5094708;28;20028;-74
2021/04/13 06:49:41;;;;;;;19.80;8.93;;;8.00;99.90;;;;;;5093221;28;20058;-74
2021/04/13 06:52:19;;;;;;;18.00;9.18;;;7.80;99.90;;;;;;5094525;28;20032;-74
2021/04/13 06:55:11;;;;;;;27.55;9.95;;;7.50;99.90;;;;;;5093363;28;20028;-74
2021/04/13 06:57:45;;;;;;;26.77;12.85;;;7.20;99.90;;;;;;5094476;28;20032;-74
2021/04/13 07:00:25;;;;;;;18.00;9.25;;;7.80;99.90;;;;;;5093502;28;20024;-74
2021/04/13 07:03:17;;;;;;;19.17;9.68;;;7.80;99.90;;;;;;5093997;28;20020;-74
2021/04/13 07:06:05;;;;;;;15.65;8.95;;;7.90;99.90;;;;;;5093209;28;20099;-74
2021/04/13 07:08:44;;;;;;;14.00;8.75;;;8.20;99.90;;;;;;5094610;28;20453;-74
2021/04/13 07:14:14;;;;;;;15.30;8.70;;;7.80;99.90;;;;;;5111868;27;20347;-74
2021/04/13 07:16:50;;;;;;;17.52;8.70;;;8.10;99.90;;;;;;5111033;28;20064;-75
2021/04/13 07:19:20;;;;;;;17.10;8.98;;;8.50;99.90;;;;;;5110691;28;20028;-73
2021/04/13 07:24:40;;;;;;;17.45;7.32;;;10.40;99.90;;;;;;5090848;28;20355;-76
2021/04/13 07:27:15;;;;;;;13.10;6.43;;;10.50;99.90;;;;;;5091155;28;20028;-75
2021/04/13 07:29:48;;;;;;;11.95;6.38;;;9.60;99.90;;;;;;5089572;28;20024;-75
2021/04/13 07:32:18;;;;;;;18.25;10.18;;;9.00;99.90;;;;;;5089970;28;20024;-75
2021/04/13 07:34:45;;;;;;;16.08;6.72;;;8.50;99.90;;;;;;5068734;28;20045;-75
2021/04/13 07:37:16;;;;;;;19.20;9.07;;;8.30;99.90;;;;;;5054313;28;20075;-75
2021/04/13 07:39:47;;;;;;;15.45;7.30;;;8.10;99.90;;;;;;5090265;28;20074;-74
2021/04/13 07:42:26;;;;;;;12.85;6.78;;;8.20;99.90;;;;;;5089875;28;20025;-74
2021/04/13 07:45:04;;;;;;;14.60;6.47;;;8.20;99.90;;;;;;5090666;28;20025;-74
2021/04/13 07:50:47;;;;;;;16.00;5.60;;;7.70;99.90;;;;;;5110687;27;20359;-74
2021/04/13 07:53:27;;;;;;;15.32;5.88;;;8.40;99.90;;;;;;5110200;28;20558;-74
2021/04/13 07:55:56;;;;;;;14.52;5.70;;;9.50;99.90;;;;;;5109585;28;20024;-74
2021/04/13 07:58:47;;;;;;;16.10;5.22;;;9.70;99.90;;;;;;5111338;28;20031;-74
2021/04/13 08:01:14;;;;;;;10.35;4.50;;;9.80;99.90;;;;;;5109367;28;20501;-74
2021/04/13 08:03:40;;;;;;;11.73;4.10;;;9.60;99.90;;;;;;5108814;28;20110;-74
2021/04/13 08:06:29;;;;;;;17.13;5.25;;;9.30;99.90;;;;;;5109644;28;20568;-74
2021/04/13 08:09:34;;;;;;;15.25;5.55;;;9.50;99.90;;;;;;5110949;28;20032;-74
2021/04/13 08:12:22;;;;;;;18.08;5.40;;;9.60;99.90;;;;;;5110395;28;20024;-75
2021/04/13 08:15:09;;;;;;;18.90;5.55;;;10.00;99.90;;;;;;5110118;28;20067;-74
2021/04/13 08:17:55;;;;;;;15.77;5.55;;;10.80;99.90;;;;;;5110192;28;20028;-75
2021/04/13 08:20:33;;;;;;;11.68;4.90;;;11.20;99.90;;;;;;5109342;28;20027;-75
2021/04/13 08:23:03;;;;;;;15.18;4.50;;;10.80;99.90;;;;;;5110887;28;20031;-75
2021/04/13 08:28:35;;;;;;;8.90;4.10;;;11.50;99.90;;;;;;5111592;27;20400;-76
2021/04/13 08:34:49;;;;;;;17.52;5.13;;;11.20;99.90;;;;;;5105628;28;20048;-75
2021/04/13 08:37:47;;;;;;;18.23;5.65;;;10.50;99.90;;;;;;5094375;28;20038;-75
2021/04/13 08:40:22;;;;;;;12.63;4.15;;;9.90;99.90;;;;;;5070302;28;20387;-75
2021/04/13 08:43:10;;;;;;;13.07;3.80;;;9.20;99.90;;;;;;5109936;28;20439;-75
2021/04/13 08:45:46;;;;;;;14.57;4.95;;;9.40;99.90;;;;;;5105529;28;20065;-75
2021/04/13 08:48:17;;;;;;;10.30;3.83;;;10.30;99.90;;;;;;5097039;28;20028;-74
2021/04/13 08:50:50;;;;;;;16.00;4.45;;;9.80;99.90;;;;;;5091515;28;20055;-75
2021/04/13 08:53:37;;;;;;;13.77;4.30;;;9.50;99.90;;;;;;5104249;28;20016;-75
2021/04/13 08:56:09;;;;;;;13.85;4.57;;;9.20;99.90;;;;;;5110187;28;20465;-75
2021/04/13 08:58:43;;;;;;;14.73;4.30;;;9.60;99.90;;;;;;5090613;28;20017;-75
2021/04/13 09:01:25;;;;;;;;;;;10.00;99.90;;;;;;5070842;28;20016;-75
2021/04/13 09:03:51;;;;;;;9.93;3.90;;;9.70;99.90;;;;;;5087979;28;19905;-75
2021/04/13 09:06:49;;;;;;;13.05;3.45;;;9.10;99.90;;;;;;5110690;28;20028;-75
2021/04/13 09:09:31;;;;;;;14.93;3.75;;;10.40;99.90;;;;;;5105655;28;20016;-76
2021/04/13 09:12:20;;;;;;;13.00;3.20;;;12.10;99.90;;;;;;5090570;28;20140;-76
2021/04/13 09:14:52;;;;;;;11.18;3.72;;;13.00;99.90;;;;;;5090984;28;20389;-76
2021/04/13 09:17:40;;;;;;;6.95;3.00;;;12.70;99.90;;;;;;5089198;28;20059;-76
2021/04/13 09:20:34;;;;;;;10.18;2.53;;;12.90;99.90;;;;;;5091837;28;20036;-76
2021/04/13 09:26:15;;;;;;;10.75;3.38;;;12.10;99.90;;;;;;5090657;28;20352;-76
2021/04/13 09:28:48;;;;;;;14.50;3.20;;;13.20;99.90;;;;;;5090077;28;20039;-75
2021/04/13 09:31:18;;;;;;;5.95;2.78;;;12.30;99.90;;;;;;5090289;28;20105;-75
2021/04/13 09:33:44;;;;;;;11.38;2.72;;;11.50;99.90;;;;;;5091315;28;20024;-74
2021/04/13 09:36:34;;;;;;;10.95;2.47;;;11.00;99.90;;;;;;5088959;28;20388;-75
2021/04/13 09:39:39;;;;;;;7.95;2.72;;;10.80;99.90;;;;;;5090743;28;20522;-75
2021/04/13 09:42:31;;;;;;;8.10;2.50;;;10.60;99.90;;;;;;5070153;28;20028;-75
2021/04/13 09:45:22;;;;;;;11.43;2.47;;;10.80;99.90;;;;;;5087290;28;20036;-75
2021/04/13 09:51:18;;;;;;;8.27;1.85;;;13.10;99.90;;;;;;5111154;27;20416;-78
2021/04/13 09:54:21;;;;;;;9.15;1.67;;;13.80;99.90;;;;;;5110932;28;20077;-77
2021/04/13 09:57:26;;;;;;;8.38;1.73;;;12.60;95.90;;;;;;5075904;28;20034;-76
2021/04/13 10:00:23;;;;;;;7.90;2.05;;;11.40;99.90;;;;;;5090019;28;20032;-76
2021/04/13 10:03:13;;;;;;;10.05;2.25;;;10.80;99.90;;;;;;5094742;28;20020;-75
2021/04/13 10:05:44;;;;;;;8.02;1.75;;;10.20;99.90;;;;;;5089014;28;20099;-75
2021/04/13 10:08:19;;;;;;;9.35;1.88;;;9.30;99.90;;;;;;5090761;28;20020;-75
2021/04/13 10:11:11;;;;;;;7.25;2.08;;;10.10;99.90;;;;;;5088683;28;20028;-75
2021/04/13 10:14:16;;;;;;;6.30;1.65;;;11.90;99.90;;;;;;5090645;28;20420;-76
2021/04/13 10:19:45;;;;;;;8.13;2.00;;;13.30;99.90;;;;;;5121556;27;20395;-76
2021/04/13 10:22:51;;;;;;;14.35;2.30;;;14.40;96.70;;;;;;5109741;28;20024;-76
2021/04/13 10:28:43;;;;;;;8.77;1.85;;;11.40;96.90;;;;;;5111451;27;20405;-76
2021/04/13 10:31:49;;;;;;;8.05;3.45;;;11.20;99.90;;;;;;5099313;28;20484;-76
2021/04/13 10:34:41;;;;;;;7.72;2.35;;;13.00;96.80;;;;;;5109432;28;20423;-75
2021/04/13 10:37:30;;;;;;;7.50;1.60;;;14.80;79.80;;;;;;5111589;28;20107;-76
2021/04/13 10:40:33;;;;;;;3.58;1.50;;;15.30;70.80;;;;;;5111579;28;20034;-76
2021/04/13 10:46:08;;;;;;;4.13;1.60;;;15.80;81.60;;;;;;5111629;27;20355;-76
2021/04/13 10:51:42;;;;;;;8.48;1.67;;;14.10;65.90;;;;;;5110758;27;20420;-76
2021/04/13 10:54:48;;;;;;;10.43;1.73;;;11.50;91.70;;;;;;5093322;28;20070;-76
2021/04/13 10:57:53;;;;;;;5.88;1.88;;;12.10;91.40;;;;;;5110853;28;20038;-75
2021/04/13 11:00:35;;;;;;;6.47;1.23;;;12.40;77.30;;;;;;5110655;28;20095;-75
2021/04/13 11:03:40;;;;;;;6.97;1.38;;;11.50;85.40;;;;;;5109484;28;20024;-76
2021/04/13 11:06:39;;;;;;;4.45;1.58;;;11.50;88.10;;;;;;5110517;28;20372;-76
2021/04/13 11:09:38;;;;;;;6.70;2.10;;;11.60;90.60;;;;;;5110944;28;20035;-76
2021/04/13 11:12:34;;;;;;;7.88;1.40;;;12.30;90.20;;;;;;5110080;28;20073;-76
2021/04/13 11:15:26;;;;;;;11.40;2.10;;;12.60;78.00;;;;;;5105981;28;20070;-74
2021/04/13 11:17:59;;;;;;;5.85;2.25;;;12.10;89.50;;;;;;5090579;28;20024;-73
2021/04/13 11:20:51;;;;;;;7.00;1.50;;;11.10;93.00;;;;;;5106559;28;20023;-75
2021/04/13 11:23:43;;;;;;;4.13;1.70;;;11.60;97.30;;;;;;5110065;28;20027;-75
2021/04/13 11:26:40;;;;;;;6.80;1.70;;;12.40;93.40;;;;;;5109411;28;20027;-75
2021/04/13 11:29:46;;;;;;;6.45;1.35;;;12.70;88.50;;;;;;5108844;28;20525;-75
2021/04/13 11:32:40;;;;;;;7.22;1.73;;;13.00;90.60;;;;;;5099467;28;20055;-72
2021/04/13 11:35:20;;;;;;;7.30;1.55;;;12.20;84.50;;;;;;5102995;28;20016;-73
2021/04/13 11:38:02;;;;;;;6.60;1.77;;;12.20;86.10;;;;;;5106140;28;20031;-76
2021/04/13 11:40:50;;;;;;;6.03;1.35;;;11.50;86.00;;;;;;5088729;28;20082;-76
2021/04/13 11:43:20;;;;;;;4.00;1.55;;;11.30;93.40;;;;;;5090141;28;20020;-76
2021/04/13 11:45:58;;;;;;;6.47;1.88;;;11.30;93.20;;;;;;5095318;28;20020;-76
2021/04/13 11:48:47;;;;;;;4.70;1.30;;;11.40;95.00;;;;;;5105226;28;20384;-76
2021/04/13 11:51:22;;;;;;;3.83;1.20;;;11.60;92.10;;;;;;5106985;28;20370;-76
2021/04/13 11:53:51;;;;;;;5.55;1.77;;;12.20;90.40;;;;;;5106820;28;20069;-74
2021/04/13 11:59:23;;;;;;;5.22;1.27;;;12.30;81.10;;;;;;5110785;27;20351;-75
2021/04/13 12:02:10;;;;;;;7.32;1.40;;;11.90;81.30;;;;;;5109908;28;20362;-76
2021/04/13 12:04:46;;;;;;;8.82;1.52;;;11.30;83.30;;;;;;5110820;28;20574;-75
2021/04/13 12:07:11;;;;;;;8.00;1.85;;;11.20;90.30;;;;;;5099920;28;20438;-75
2021/04/13 12:10:01;;;;;;;3.78;1.45;;;11.10;91.60;;;;;;5090919;28;20040;-75
2021/04/13 12:17:49;;;;;;;3.70;1.40;;;10.90;91.70;;;;;;5132242;27;20859;-75
2021/04/13 12:20:23;;;;;;;2.75;1.25;;;11.20;75.00;;;;;;5131923;27;20104;-75
2021/04/13 12:22:51;;;;;;;7.43;1.30;;;11.50;74.10;;;;;;5131089;27;20080;-76
2021/04/13 12:25:56;;;;;;;3.35;1.00;;;11.70;64.60;;;;;;5131417;27;20027;-76
2021/04/13 12:28:35;;;;;;;4.30;1.58;;;11.60;72.90;;;;;;5131403;27;20027;-75
2021/04/13 12:31:27;;;;;;;4.43;1.30;;;11.00;84.20;;;;;;5131319;27;20069;-75
2021/04/13 12:34:02;;;;;;;6.60;1.60;;;10.80;91.80;;;;;;5131155;28;20033;-76
2021/04/13 12:36:49;;;;;;;4.78;1.88;;;10.80;90.70;;;;;;5131036;27;20107;-76
2021/04/13 12:39:43;;;;;;;4.75;1.17;;;11.30;79.40;;;;;;5131373;27;20023;-75
2021/04/13 12:42:31;;;;;;;6.03;1.67;;;11.70;70.40;;;;;;5130816;27;20456;-76
2021/04/13 12:48:00;;;;;;;6.43;1.25;;;11.00;71.90;;;;;;5111164;27;20116;-74
2021/04/13 12:50:34;;;;;;;6.30;1.48;;;10.50;80.60;;;;;;5111112;28;20026;-75
2021/04/13 12:53:02;;;;;;;5.68;1.20;;;10.60;86.00;;;;;;5109698;28;20031;-75
2021/04/13 12:55:29;;;;;;;3.72;1.42;;;10.20;83.50;;;;;;5109784;28;20020;-75
2021/04/13 12:58:01;;;;;;;3.63;1.38;;;10.40;86.90;;;;;;5110951;28;20031;-75
2021/04/13 13:00:33;;;;;;;3.03;0.93;;;11.20;91.90;;;;;;5110270;28;20111;-74
2021/04/13 13:03:21;;;;;;;6.63;1.48;;;11.70;84.60;;;;;;5110794;28;20020;-75
2021/04/13 13:05:48;;;;;;;2.85;1.10;;;11.90;75.40;;;;;;5110535;28;20027;-75
2021/04/13 13:08:22;;;;;;;14.48;1.95;;;12.00;76.00;;;;;;5110754;28;20366;-75
2021/04/13 13:10:50;;;;;;;6.85;1.63;;;12.00;76.00;;;;;;5108774;28;20051;-75
2021/04/13 13:13:28;;;;;;;5.63;1.08;;;12.20;74.50;;;;;;5110800;28;20020;-75
2021/04/13 13:15:56;;;;;;;10.70;1.23;;;12.10;71.80;;;;;;5106039;28;20027;-75
2021/04/13 13:18:35;;;;;;;2.70;1.10;;;11.50;73.60;;;;;;5089991;28;20031;-74
2021/04/13 13:21:03;;;;;;;3.97;1.15;;;11.20;68.60;;;;;;5107848;28;20024;-74
2021/04/13 13:23:36;;;;;;;6.47;1.67;;;11.30;66.10;;;;;;5108492;28;20173;-75
2021/04/13 13:26:29;;;;;;;2.13;1.05;;;11.40;73.80;;;;;;5101654;28;20031;-75
2021/04/13 13:31:37;;;;;;;6.63;2.90;;;11.50;64.40;;;;;;5131105;27;20403;-76
2021/04/13 13:34:16;;;;;;;8.85;2.15;;;11.20;64.10;;;;;;5110982;28;20388;-76
2021/04/13 13:36:44;;;;;;;2.95;1.77;;;10.90;62.50;;;;;;5121193;28;20062;-76
2021/04/13 13:39:29;;;;;;;5.95;1.58;;;10.70;70.20;;;;;;5093147;28;20020;-76
2021/04/13 13:42:00;;;;;;;1.33;1.05;;;11.20;68.00;;;;;;5110624;28;20020;-76
2021/04/13 13:44:46;;;;;;;1.58;0.90;;;11.80;62.70;;;;;;5120269;28;20027;-76
2021/04/13 13:47:33;;;;;;;3.15;1.00;;;11.80;58.80;;;;;;5131376;28;20027;-76
2021/04/13 13:50:02;;;;;;;3.03;0.88;;;12.00;58.70;;;;;;5130621;27;20472;-75
2021/04/13 13:55:31;;;;;;;2.00;1.05;;;12.00;60.10;;;;;;5065857;28;20923;-76
2021/04/13 13:58:05;;;;;;;5.50;2.30;;;12.10;59.30;;;;;;5070352;28;20031;-76
2021/04/13 14:00:53;;;;;;;3.45;1.60;;;12.00;59.70;;;;;;5070385;28;20082;-76
2021/04/13 14:03:30;;;;;;;7.25;1.33;;;11.80;62.90;;;;;;5056717;28;20100;-76
2021/04/13 14:05:59;;;;;;;3.13;1.17;;;12.10;62.80;;;;;;5050494;28;20040;-74
2021/04/13 14:08:29;;;;;;;4.25;1.20;;;12.40;60.90;;;;;;5066108;28;20017;-75
2021/04/13 14:11:09;;;;;;;5.13;1.30;;;11.90;68.30;;;;;;5069949;28;20424;-74
2021/04/13 14:13:38;;;;;;;5.53;1.58;;;12.10;80.70;;;;;;5053902;28;20032;-76
2021/04/13 14:16:42;;;;;;;2.90;1.00;;;12.10;82.10;;;;;;5070383;28;20406;-76
2021/04/13 14:19:30;;;;;;;4.30;1.60;;;11.20;85.00;;;;;;5057541;28;20501;-75
2021/04/13 14:25:11;;;;;;;3.45;1.15;;;10.00;97.00;;;;;;5108877;27;20366;-76
2021/04/13 14:27:38;;;;;;;7.03;1.42;;;10.00;93.70;;;;;;5110361;28;20111;-76